Time;durP1;ratioP1;P1;durP2;ratioP2;P2;SDS_P1;SDS_P2;PMS_P1;PMS_P2;Temp;Humidity;BMP_temperature;BMP_pressure;BME280_temperature;BME280_humidity;BME280_pressure;Samples;Min_cycle;Max_cycle;Signal;HPM_P1;HPM_P2
2023/01/23 00:09:53;;;;;;;0.20;0.10;;;4.40;99.90;;;;;;21225519;27;20404;-70
2023/01/23 00:19:59;;;;;;;0.20;0.10;;;4.40;99.90;;;;;;21208761;27;20457;-70
2023/01/23 00:30:03;;;;;;;0.20;0.10;;;4.50;99.90;;;;;;21204493;27;20505;-70
2023/01/23 00:40:10;;;;;;;0.20;0.10;;;4.30;99.90;;;;;;21213644;27;20393;-71
2023/01/23 00:50:14;;;;;;;0.20;0.10;;;3.50;99.90;;;;;;21251732;27;20400;-73
2023/01/23 01:00:20;;;;;;;0.20;0.10;;;2.90;99.90;;;;;;21248666;27;20865;-71
2023/01/23 01:10:28;;;;;;;0.20;0.10;;;2.80;99.90;;;;;;21231163;27;20384;-70
2023/01/23 01:20:33;;;;;;;0.20;0.10;;;2.40;99.90;;;;;;21246020;27;20409;-72
2023/01/23 01:30:37;;;;;;;0.20;0.10;;;2.50;99.90;;;;;;21242418;27;20468;-73
2023/01/23 01:40:43;;;;;;;0.20;0.10;;;2.30;99.90;;;;;;21215072;27;20419;-71
2023/01/23 01:50:46;;;;;;;0.20;0.10;;;2.20;99.90;;;;;;21212481;27;20407;-72
2023/01/23 02:00:52;;;;;;;0.20;0.10;;;2.30;99.90;;;;;;21207937;27;20417;-73
2023/01/23 02:10:56;;;;;;;0.20;0.10;;;2.00;99.90;;;;;;21218699;27;20393;-73
2023/01/23 02:21:06;;;;;;;0.20;0.10;;;2.30;99.90;;;;;;21205771;27;20566;-73
2023/01/23 02:31:12;;;;;;;0.20;0.10;;;2.30;99.90;;;;;;21198684;27;20772;-72
2023/01/23 02:41:21;;;;;;;0.20;0.10;;;2.60;99.90;;;;;;21167980;27;20480;-72
2023/01/23 02:51:26;;;;;;;0.20;0.10;;;3.00;99.90;;;;;;21169182;27;20394;-72
2023/01/23 03:01:30;;;;;;;0.20;0.10;;;3.10;99.90;;;;;;21198976;27;20925;-73
2023/01/23 03:11:37;;;;;;;0.20;0.10;;;3.30;99.90;;;;;;21237429;27;20393;-73
2023/01/23 03:21:41;;;;;;;0.20;0.10;;;3.10;99.90;;;;;;21200968;27;20421;-72
2023/01/23 03:31:47;;;;;;;0.20;0.10;;;2.90;99.90;;;;;;21161149;27;20383;-71
2023/01/23 03:41:51;;;;;;;0.20;0.10;;;3.00;99.90;;;;;;21114845;28;20498;-70
2023/01/23 03:51:57;;;;;;;0.20;0.10;;;3.10;99.90;;;;;;21213778;27;20499;-71
2023/01/23 04:02:03;;;;;;;0.20;0.10;;;2.80;99.90;;;;;;21280451;27;20443;-71
2023/01/23 04:12:09;;;;;;;0.20;0.10;;;2.80;99.90;;;;;;21232698;27;20909;-72
2023/01/23 04:22:13;;;;;;;0.20;0.10;;;3.00;99.90;;;;;;21213773;27;20961;-72
2023/01/23 04:32:18;;;;;;;0.20;0.10;;;3.50;99.90;;;;;;21232314;27;20442;-71
2023/01/23 04:42:22;;;;;;;0.20;0.10;;;3.60;99.90;;;;;;21231148;28;20889;-70
2023/01/23 04:52:27;;;;;;;0.20;0.10;;;3.20;99.90;;;;;;21212565;28;20893;-71
2023/01/23 05:02:31;;;;;;;0.20;0.10;;;3.00;99.90;;;;;;21221110;28;20422;-70
2023/01/23 05:12:37;;;;;;;0.20;0.10;;;2.70;99.90;;;;;;21124655;28;20406;-69
2023/01/23 05:22:51;;;;;;;0.20;0.10;;;1.90;99.90;;;;;;21129462;28;20481;-70
2023/01/23 05:32:56;;;;;;;0.20;0.10;;;2.00;99.90;;;;;;21141866;28;20391;-70
2023/01/23 05:43:00;;;;;;;0.20;0.10;;;1.80;99.90;;;;;;21158571;28;20410;-70
2023/01/23 05:53:05;;;;;;;0.20;0.10;;;1.40;99.90;;;;;;21135205;28;20390;-70
2023/01/23 06:03:09;;;;;;;0.20;0.10;;;1.60;99.90;;;;;;21149828;28;20447;-70
2023/01/23 06:13:15;;;;;;;0.20;0.10;;;1.30;99.90;;;;;;21135197;28;20395;-70
2023/01/23 06:23:18;;;;;;;0.20;0.10;;;1.50;99.90;;;;;;21155085;28;20417;-71
2023/01/23 06:33:24;;;;;;;0.20;0.10;;;1.60;99.90;;;;;;21153409;28;20391;-71
2023/01/23 06:43:30;;;;;;;0.20;0.10;;;1.30;99.90;;;;;;21117464;28;20510;-71
2023/01/23 06:53:35;;;;;;;0.20;0.10;;;0.80;99.90;;;;;;21150251;28;20406;-71
2023/01/23 07:03:39;;;;;;;0.20;0.10;;;1.10;99.90;;;;;;21127545;28;20403;-71
2023/01/23 07:13:45;;;;;;;0.20;0.10;;;1.40;99.90;;;;;;21115240;28;20406;-71
2023/01/23 07:23:49;;;;;;;0.20;0.10;;;1.00;99.90;;;;;;21149624;28;20430;-71
2023/01/23 07:33:55;;;;;;;0.20;0.10;;;1.20;99.90;;;;;;21130797;28;20452;-67
2023/01/23 07:43:59;;;;;;;0.20;0.10;;;1.20;99.90;;;;;;21111880;28;20433;-70
2023/01/23 07:54:05;;;;;;;0.20;0.10;;;1.70;99.90;;;;;;21146587;28;20885;-71
2023/01/23 08:04:08;;;;;;;0.20;0.10;;;2.20;99.90;;;;;;21145739;28;20414;-71
2023/01/23 08:14:14;;;;;;;0.20;0.10;;;3.20;99.90;;;;;;21126652;28;20394;-71
2023/01/23 08:24:18;;;;;;;0.20;0.10;;;3.70;99.90;;;;;;21127534;28;20468;-71
2023/01/23 08:34:24;;;;;;;0.20;0.10;;;4.20;99.90;;;;;;21144843;28;20409;-71
2023/01/23 08:44:30;;;;;;;0.20;0.10;;;4.60;99.90;;;;;;21144910;28;20426;-72
2023/01/23 08:54:35;;;;;;;0.20;0.10;;;5.00;99.90;;;;;;21144588;28;20459;-73
2023/01/23 09:04:39;;;;;;;0.20;0.10;;;5.40;99.90;;;;;;21219554;27;20407;-70
2023/01/23 09:14:44;;;;;;;0.20;0.10;;;6.00;99.90;;;;;;21263452;27;20489;-70
2023/01/23 09:24:48;;;;;;;0.20;0.00;;;6.20;99.90;;;;;;21225502;27;20457;-70
2023/01/23 09:34:54;;;;;;;0.20;0.00;;;6.50;99.90;;;;;;21225247;27;20442;-72
2023/01/23 09:45:04;;;;;;;0.20;0.10;;;7.10;99.90;;;;;;21134229;27;20400;-71
2023/01/23 09:55:15;;;;;;;0.20;0.00;;;7.50;99.90;;;;;;21209765;27;20747;-72
2023/01/23 10:05:23;;;;;;;0.20;0.10;;;7.70;99.90;;;;;;21134987;28;20431;-71
2023/01/23 10:15:37;;;;;;;0.20;0.10;;;7.80;99.90;;;;;;21134209;27;20389;-70
2023/01/23 10:25:41;;;;;;;0.20;0.07;;;7.20;99.90;;;;;;21210434;27;20397;-72
2023/01/23 10:35:52;;;;;;;0.20;0.10;;;7.50;99.90;;;;;;21234799;27;20455;-71
2023/01/23 10:45:55;;;;;;;0.20;0.10;;;7.50;99.90;;;;;;21202088;27;20476;-73
2023/01/23 10:56:01;;;;;;;0.20;0.07;;;7.80;99.90;;;;;;21208898;27;20406;-69
2023/01/23 11:06:08;;;;;;;0.20;0.10;;;8.50;99.90;;;;;;21197418;27;20849;-69
2023/01/23 11:16:16;;;;;;;0.20;0.10;;;9.90;99.90;;;;;;21207968;27;20395;-69
2023/01/23 11:26:33;;;;;;;0.20;0.03;;;9.70;99.90;;;;;;21228551;27;20491;-68
2023/01/23 11:36:45;;;;;;;0.20;0.10;;;8.80;99.90;;;;;;21232186;27;20879;-68
2023/01/23 11:47:19;;;;;;;0.20;0.00;;;10.10;99.90;;;;;;21182263;27;21019;-68
2023/01/23 11:57:35;;;;;;;0.20;0.10;;;12.00;99.90;;;;;;21144489;28;20925;-69
2023/01/23 12:07:50;;;;;;;0.20;0.03;;;12.00;99.90;;;;;;21138621;28;20399;-69
2023/01/23 12:18:02;;;;;;;0.20;0.00;;;9.70;99.90;;;;;;21145507;28;20403;-68
2023/01/23 12:28:23;;;;;;;0.20;0.10;;;12.00;99.90;;;;;;21206130;27;20407;-69
2023/01/23 12:38:33;;;;;;;0.20;0.10;;;13.70;99.90;;;;;;21210869;27;20475;-68
2023/01/23 12:48:43;;;;;;;0.20;0.10;;;14.10;99.90;;;;;;21197539;27;20486;-69
2023/01/23 12:58:56;;;;;;;0.20;0.10;;;14.00;99.90;;;;;;21191291;27;20393;-69
2023/01/23 13:09:06;;;;;;;0.20;0.10;;;12.10;99.90;;;;;;21172511;27;20526;-69
2023/01/23 13:29:50;;;;;;;0.20;0.10;;;11.60;99.90;;;;;;21202942;27;20400;-68
2023/01/23 13:40:14;;;;;;;0.20;0.10;;;11.90;99.90;;;;;;21224462;27;20405;-70
2023/01/23 13:50:29;;;;;;;0.20;0.10;;;11.30;99.90;;;;;;21138995;28;20399;-67
2023/01/23 14:11:36;;;;;;;0.20;0.10;;;11.40;99.90;;;;;;20572452;28;20400;-68
2023/01/23 14:21:58;;;;;;;0.20;0.00;;;11.00;99.90;;;;;;20330056;29;20427;-69
2023/01/23 14:32:02;;;;;;;0.20;0.10;;;10.70;99.90;;;;;;20691759;28;20392;-68
2023/01/23 14:42:07;;;;;;;0.20;0.10;;;10.70;99.90;;;;;;20794877;28;20762;-69
2023/01/23 14:52:24;;;;;;;0.20;0.10;;;10.60;99.90;;;;;;21089198;28;20796;-68
2023/01/23 15:02:34;;;;;;;0.20;0.10;;;10.60;99.90;;;;;;21131537;28;20601;-70
2023/01/23 15:12:38;;;;;;;0.20;0.10;;;13.10;99.90;;;;;;21150630;28;20411;-68
2023/01/23 15:22:43;;;;;;;0.20;0.10;;;13.40;99.90;;;;;;21109253;28;20475;-68
2023/01/23 15:32:47;;;;;;;0.20;0.10;;;13.10;99.90;;;;;;21217908;27;20414;-68
2023/01/23 15:43:04;;;;;;;0.20;0.10;;;12.40;99.90;;;;;;21227097;27;20481;-69
2023/01/23 15:53:12;;;;;;;0.20;0.10;;;11.70;99.90;;;;;;21206990;27;20400;-68
2023/01/23 16:03:17;;;;;;;0.20;0.10;;;10.90;99.90;;;;;;21210698;27;20794;-66
2023/01/23 16:13:21;;;;;;;0.20;0.10;;;10.20;99.90;;;;;;21208864;27;20385;-70
2023/01/23 16:23:26;;;;;;;0.20;0.00;;;9.70;99.90;;;;;;21207515;27;20906;-70
2023/01/23 16:33:44;;;;;;;0.20;0.10;;;9.50;99.90;;;;;;21225400;27;20768;-68
2023/01/23 16:43:50;;;;;;;0.20;0.10;;;9.40;99.90;;;;;;21205216;28;20436;-69
2023/01/23 16:53:57;;;;;;;0.20;0.10;;;9.10;99.90;;;;;;21225937;28;20468;-68
2023/01/23 17:04:12;;;;;;;0.20;0.10;;;9.00;99.90;;;;;;21207359;28;20508;-69
2023/01/23 17:14:19;;;;;;;0.20;0.10;;;8.70;99.90;;;;;;21203250;28;20899;-69
2023/01/23 17:24:24;;;;;;;0.20;0.10;;;7.30;99.90;;;;;;21205347;27;20674;-70
2023/01/23 17:34:32;;;;;;;0.20;0.10;;;7.00;99.90;;;;;;21223943;27;20440;-67
2023/01/23 17:44:45;;;;;;;0.20;0.10;;;6.40;99.90;;;;;;21190313;27;20852;-67
2023/01/23 17:54:49;;;;;;;0.20;0.10;;;6.00;99.90;;;;;;21136780;28;20433;-69
2023/01/23 18:04:54;;;;;;;0.20;0.10;;;5.80;99.90;;;;;;21136853;28;20411;-69
2023/01/23 18:15:10;;;;;;;0.20;0.10;;;5.60;99.90;;;;;;21176278;27;20393;-70
2023/01/23 18:25:17;;;;;;;0.20;0.10;;;5.50;99.90;;;;;;21237183;27;21152;-69
2023/01/23 18:35:29;;;;;;;0.20;0.10;;;5.40;99.90;;;;;;21221461;27;20392;-70
2023/01/23 18:45:35;;;;;;;0.20;0.10;;;5.50;99.90;;;;;;21237224;27;20413;-70
2023/01/23 18:55:45;;;;;;;0.20;0.10;;;5.40;99.90;;;;;;21235572;27;20461;-69
2023/01/23 19:05:51;;;;;;;0.20;0.10;;;5.50;99.90;;;;;;21233904;27;20412;-69
2023/01/23 19:16:04;;;;;;;0.20;0.10;;;5.60;99.90;;;;;;21229846;27;20464;-70
2023/01/23 19:26:11;;;;;;;0.20;0.07;;;5.80;99.90;;;;;;21227557;27;20397;-71
2023/01/23 19:36:15;;;;;;;0.20;0.10;;;5.70;99.90;;;;;;21190702;27;20403;-70
2023/01/23 19:46:25;;;;;;;0.20;0.10;;;6.00;99.90;;;;;;21209659;27;20525;-71
2023/01/23 19:56:29;;;;;;;0.20;0.10;;;6.00;99.90;;;;;;21209617;27;20460;-71
2023/01/23 20:06:37;;;;;;;0.20;0.00;;;6.00;99.90;;;;;;21219322;27;20452;-70
2023/01/23 20:16:42;;;;;;;0.20;0.10;;;6.30;99.90;;;;;;21206833;27;20492;-71
2023/01/23 20:26:48;;;;;;;0.20;0.00;;;6.40;99.90;;;;;;21206775;27;21294;-72
2023/01/23 20:36:52;;;;;;;0.20;0.10;;;6.40;99.90;;;;;;21223710;27;20400;-71
2023/01/23 20:46:57;;;;;;;0.20;0.10;;;6.60;99.90;;;;;;21205841;28;20412;-71
2023/01/23 20:57:01;;;;;;;0.20;0.10;;;6.70;99.90;;;;;;21217899;27;20439;-72
2023/01/23 21:07:06;;;;;;;0.20;0.10;;;6.70;99.90;;;;;;21223609;27;20401;-70
2023/01/23 21:17:10;;;;;;;0.20;0.10;;;6.60;99.90;;;;;;21241011;27;20452;-71
2023/01/23 21:27:17;;;;;;;0.20;0.10;;;6.60;99.90;;;;;;21222660;27;20559;-72
2023/01/23 21:37:23;;;;;;;0.20;0.10;;;6.60;99.90;;;;;;21192479;27;20438;-72
2023/01/23 21:47:28;;;;;;;0.20;0.10;;;6.60;99.90;;;;;;21202242;27;20402;-71
2023/01/23 21:57:32;;;;;;;0.20;0.10;;;6.60;99.90;;;;;;21229869;27;20602;-71
2023/01/23 22:07:37;;;;;;;0.20;0.10;;;6.60;99.90;;;;;;21216823;27;20436;-71
2023/01/23 22:17:41;;;;;;;0.20;0.07;;;6.50;99.90;;;;;;21237257;27;20401;-71
2023/01/23 22:27:46;;;;;;;0.20;0.10;;;6.20;99.90;;;;;;21236187;27;20469;-71
2023/01/23 22:37:50;;;;;;;0.20;0.10;;;6.00;99.90;;;;;;21198067;27;20393;-71
2023/01/23 22:47:55;;;;;;;0.20;0.10;;;5.90;99.90;;;;;;21216103;27;20455;-70
2023/01/23 22:57:59;;;;;;;0.20;0.03;;;5.80;99.90;;;;;;21198833;27;20781;-72
2023/01/23 23:08:05;;;;;;;0.20;0.00;;;5.80;99.90;;;;;;21197649;27;20738;-71
2023/01/23 23:18:09;;;;;;;0.20;0.10;;;5.70;99.90;;;;;;21154038;27;20482;-71
2023/01/23 23:28:14;;;;;;;0.20;0.10;;;6.10;99.90;;;;;;21192085;27;20804;-71
2023/01/23 23:38:18;;;;;;;0.20;0.10;;;6.20;99.90;;;;;;21233746;27;20447;-72
2023/01/23 23:48:24;;;;;;;0.20;0.00;;;6.20;99.90;;;;;;21217178;27;20389;-71
2023/01/23 23:58:27;;;;;;;0.20;0.10;;;5.90;99.90;;;;;;21215454;27;20405;-72
